Time,TemperatureF,DewpointF,PressureIn,WindDirection,WindDirectionDegrees,WindSpeedMPH,WindSpeedGustMPH,Humidity,HourlyPrecipIn,Conditions,Clouds,dailyrainin,SoftwareType,DateUTC
2013-11-21 00:02:00,59.7,44.4,30.31,ENE,70,4.0,4.0,57,0.04,,,0.08,meteohub,2013-11-21 08:02:00,
2013-11-21 00:22:00,59.2,44.4,30.28,East,82,3.0,5.0,58,0.04,,,0.00,meteohub,2013-11-21 08:22:00,
2013-11-21 00:42:00,58.8,45.0,30.28,ENE,61,3.0,5.0,60,0.08,,,0.04,meteohub,2013-11-21 08:42:00,
2013-11-21 01:02:00,58.8,45.9,30.28,East,92,0.0,5.0,62,0.04,,,0.04,meteohub,2013-11-21 09:02:00,
2013-11-21 01:22:00,58.8,47.1,30.28,ESE,123,0.0,5.0,65,0.08,,,0.08,meteohub,2013-11-21 09:22:00,
2013-11-21 01:42:00,59.0,47.7,30.28,ESE,107,4.0,0.0,66,0.08,,,0.12,meteohub,2013-11-21 09:42:00,
2013-11-21 02:02:00,59.0,48.4,30.25,SE,137,3.0,5.0,68,0.08,,,0.12,meteohub,2013-11-21 10:02:00,
2013-11-21 02:22:00,59.2,49.1,30.25,ESE,106,4.0,6.0,69,0.04,,,0.12,meteohub,2013-11-21 10:22:00,
2013-11-21 02:42:00,59.4,50.0,30.25,SE,124,2.0,6.0,71,0.00,,,0.12,meteohub,2013-11-21 10:42:00,
2013-11-21 03:02:00,59.7,50.4,30.25,SE,135,2.0,8.0,71,0.04,,,0.17,meteohub,2013-11-21 11:02:00,
2013-11-21 03:22:00,59.9,50.9,30.25,SSE,168,0.0,8.0,72,0.04,,,0.17,meteohub,2013-11-21 11:22:00,
2013-11-21 03:42:00,60.6,54.1,30.25,SW,227,5.0,8.0,79,0.04,,,0.17,meteohub,2013-11-21 11:42:00,
2013-11-21 04:02:00,60.6,56.1,30.25,WSW,244,8.0,11.0,85,0.00,,,0.17,meteohub,2013-11-21 12:02:00,
2013-11-21 04:22:00,60.6,57.4,30.25,SW,236,6.0,11.0,89,0.00,,,0.17,meteohub,2013-11-21 12:22:00,
2013-11-21 04:42:00,60.6,57.7,30.25,SW,217,6.0,11.0,90,0.00,,,0.17,meteohub,2013-11-21 12:42:00,
2013-11-21 05:02:00,60.6,57.0,30.25,WSW,251,5.0,8.0,88,0.00,,,0.17,meteohub,2013-11-21 13:02:00,
2013-11-21 05:22:00,60.4,55.9,30.25,SW,232,4.0,9.0,85,0.00,,,0.17,meteohub,2013-11-21 13:22:00,
2013-11-21 05:42:00,60.6,54.7,30.25,SW,216,8.0,9.0,81,0.00,,,0.17,meteohub,2013-11-21 13:42:00,
2013-11-21 06:02:00,60.3,52.0,30.28,WSW,243,5.0,12.0,74,0.00,,,0.17,meteohub,2013-11-21 14:02:00,
2013-11-21 06:22:00,60.3,53.8,30.28,WSW,252,8.0,12.0,79,0.00,,,0.17,meteohub,2013-11-21 14:22:00,
2013-11-21 06:42:00,60.4,53.2,30.28,SW,225,5.0,9.0,77,0.00,,,0.17,meteohub,2013-11-21 14:42:00,
2013-11-21 07:02:00,60.6,52.3,30.28,South,172,0.0,6.0,74,0.00,,,0.17,meteohub,2013-11-21 15:02:00,
2013-11-21 07:22:00,60.8,51.8,30.28,SW,219,5.0,8.0,72,0.00,,,0.17,meteohub,2013-11-21 15:22:00,
2013-11-21 07:42:00,61.5,51.3,30.28,WSW,255,5.0,9.0,69,0.00,,,0.17,meteohub,2013-11-21 15:42:00,
2013-11-21 08:02:00,61.3,48.6,30.28,West,280,6.0,13.0,63,0.00,,,0.17,meteohub,2013-11-21 16:02:00,
2013-11-21 08:22:00,61.7,46.4,30.31,West,267,4.0,8.0,57,0.00,,,0.17,meteohub,2013-11-21 16:22:00,
2013-11-21 08:42:00,61.7,42.3,30.31,SW,222,6.0,11.0,49,0.00,,,0.17,meteohub,2013-11-21 16:42:00,
2013-11-21 09:02:00,61.9,41.9,30.31,NW,306,4.0,13.0,48,0.00,,,0.17,meteohub,2013-11-21 17:02:00,
2013-11-21 09:22:00,61.0,42.8,30.31,WSW,256,4.0,13.0,51,0.00,,,0.17,meteohub,2013-11-21 17:22:00,
2013-11-21 09:42:00,61.0,44.8,30.28,West,259,13.0,13.0,55,0.00,,,0.17,meteohub,2013-11-21 17:42:00,
2013-11-21 10:02:00,61.0,45.1,30.31,West,273,8.0,13.0,56,0.00,,,0.17,meteohub,2013-11-21 18:02:00,
2013-11-21 10:22:00,61.7,43.3,30.31,WSW,253,5.0,13.0,51,0.00,,,0.17,meteohub,2013-11-21 18:22:00,
2013-11-21 10:42:00,62.1,40.5,30.31,West,277,8.0,13.0,45,0.00,,,0.17,meteohub,2013-11-21 18:42:00,
2013-11-21 11:02:00,63.0,40.1,30.31,WSW,258,11.0,13.0,43,0.00,,,0.17,meteohub,2013-11-21 19:02:00,
2013-11-21 11:22:00,64.0,37.9,30.31,WNW,289,9.0,13.0,38,0.00,,,0.17,meteohub,2013-11-21 19:22:00,
2013-11-21 11:42:00,65.1,36.9,30.31,WSW,253,8.0,12.0,35,0.00,,,0.17,meteohub,2013-11-21 19:42:00,
2013-11-21 12:02:00,64.0,37.2,30.28,WSW,255,5.0,11.0,37,0.00,,,0.17,meteohub,2013-11-21 20:02:00,
2013-11-21 12:22:00,63.1,37.0,30.28,West,276,10.0,11.0,38,0.00,,,0.17,meteohub,2013-11-21 20:22:00,
2013-11-21 12:42:00,63.0,37.0,30.28,West,277,10.0,13.0,38,0.00,,,0.17,meteohub,2013-11-21 20:42:00,
2013-11-21 13:02:00,62.6,36.7,30.28,West,271,6.0,13.0,38,0.00,,,0.17,meteohub,2013-11-21 21:02:00,
2013-11-21 13:22:00,63.3,37.2,30.28,West,259,6.0,11.0,38,0.00,,,0.17,meteohub,2013-11-21 21:22:00,
2013-11-21 13:42:00,63.0,36.3,30.28,WNW,288,5.0,13.0,37,0.00,,,0.17,meteohub,2013-11-21 21:42:00,
2013-11-21 14:02:00,62.6,36.0,30.28,WSW,253,6.0,11.0,37,0.00,,,0.17,meteohub,2013-11-21 22:02:00,
2013-11-21 14:22:00,62.6,36.0,30.28,WSW,246,8.0,11.0,37,0.00,,,0.17,meteohub,2013-11-21 22:22:00,
2013-11-21 14:42:00,61.7,36.5,30.28,WNW,283,8.0,13.0,39,0.00,,,0.17,meteohub,2013-11-21 22:42:00,
2013-11-21 15:02:00,62.1,36.9,30.28,WSW,244,8.0,11.0,39,0.00,,,0.17,meteohub,2013-11-21 23:02:00,
2013-11-21 15:22:00,63.1,36.5,30.28,West,265,6.0,11.0,37,0.00,,,0.17,meteohub,2013-11-21 23:22:00,
2013-11-21 15:42:00,63.7,35.6,30.31,WSW,240,6.0,8.0,35,0.00,,,0.17,meteohub,2013-11-21 23:42:00,
2013-11-21 16:02:00,61.9,34.7,30.28,WSW,237,4.0,11.0,36,0.00,,,0.17,meteohub,2013-11-22 00:02:00,
2013-11-21 16:22:00,60.6,34.9,30.31,SW,235,5.0,8.0,38,0.00,,,0.17,meteohub,2013-11-22 00:22:00,
2013-11-21 16:42:00,60.3,34.5,30.31,West,273,0.0,3.0,38,0.00,,,0.17,meteohub,2013-11-22 00:42:00,
2013-11-21 17:02:00,60.1,35.1,30.31,West,260,0.0,0.0,39,0.00,,,0.17,meteohub,2013-11-22 01:02:00,
2013-11-21 17:22:00,59.7,34.7,30.31,WSW,243,3.0,6.0,39,0.00,,,0.17,meteohub,2013-11-22 01:22:00,
2013-11-21 17:42:00,59.7,34.0,30.31,WSW,245,3.0,11.0,38,0.00,,,0.17,meteohub,2013-11-22 01:42:00,
2013-11-21 18:02:00,59.7,34.0,30.31,West,265,0.0,5.0,38,0.00,,,0.17,meteohub,2013-11-22 02:02:00,
2013-11-21 18:22:00,59.5,34.5,30.31,SW,218,0.0,0.0,39,0.00,,,0.17,meteohub,2013-11-22 02:22:00,
2013-11-21 18:42:00,59.2,35.4,30.31,SW,216,0.0,0.0,41,0.00,,,0.17,meteohub,2013-11-22 02:42:00,
2013-11-21 19:02:00,58.1,35.8,30.31,SW,216,0.0,0.0,43,0.00,,,0.17,meteohub,2013-11-22 03:02:00,
2013-11-21 19:22:00,57.4,35.6,30.31,SW,216,0.0,0.0,44,0.00,,,0.17,meteohub,2013-11-22 03:22:00,
2013-11-21 19:42:00,57.2,36.0,30.31,SW,216,0.0,0.0,45,0.00,,,0.17,meteohub,2013-11-22 03:42:00,
2013-11-21 20:02:00,57.9,37.2,30.31,SW,216,0.0,0.0,46,0.00,,,0.17,meteohub,2013-11-22 04:02:00,
2013-11-21 20:22:00,57.4,36.7,30.34,NNE,33,3.0,4.0,46,0.00,,,0.17,meteohub,2013-11-22 04:22:00,
2013-11-21 20:42:00,57.0,37.6,30.31,NE,34,0.0,3.0,48,0.00,,,0.17,meteohub,2013-11-22 04:42:00,
2013-11-21 21:02:00,56.5,37.6,30.31,NE,34,0.0,0.0,49,0.00,,,0.17,meteohub,2013-11-22 05:02:00,
2013-11-21 21:22:00,55.9,37.0,30.34,NE,35,0.0,0.0,49,0.00,,,0.17,meteohub,2013-11-22 05:22:00,
2013-11-21 21:42:00,56.7,38.3,30.34,NE,35,0.0,0.0,50,0.00,,,0.17,meteohub,2013-11-22 05:42:00,
2013-11-21 22:02:00,56.3,37.9,30.34,NE,35,0.0,0.0,50,0.00,,,0.17,meteohub,2013-11-22 06:02:00,
2013-11-21 22:22:00,56.3,38.5,30.31,NE,34,0.0,0.0,51,0.00,,,0.17,meteohub,2013-11-22 06:22:00,
2013-11-21 22:42:00,56.1,38.7,30.31,NE,35,0.0,0.0,52,0.00,,,0.17,meteohub,2013-11-22 06:42:00,
2013-11-21 23:02:00,55.6,38.3,30.31,NE,35,0.0,0.0,52,0.00,,,0.17,meteohub,2013-11-22 07:02:00,
2013-11-21 23:22:00,55.4,38.5,30.31,NE,35,0.0,0.0,53,0.00,,,0.17,meteohub,2013-11-22 07:22:00,
2013-11-21 23:42:00,55.2,38.3,30.31,NE,35,0.0,0.0,53,0.00,,,0.17,meteohub,2013-11-22 07:42:00,